createdAt,value
2022-08-22T00:00:43.764Z,1008.46
2022-08-22T00:01:43.276Z,1008.47
2022-08-22T00:02:43.289Z,1008.44
2022-08-22T00:02:45.528Z,1008.23
2022-08-22T00:02:47.028Z,1008.45
2022-08-22T00:02:49.989Z,1008.41
2022-08-22T00:02:55.723Z,1008.60
2022-08-22T00:02:57.280Z,1008.00
2022-08-22T00:02:59.184Z,1008.65
2022-08-22T00:03:00.574Z,1008.47
2022-08-22T00:03:01.583Z,1008.02
2022-08-22T00:03:09.241Z,1008.38
2022-08-22T00:03:43.294Z,1008.48
2022-08-22T00:04:43.255Z,1008.45
2022-08-22T00:05:43.283Z,1008.41
2022-08-22T00:06:43.320Z,1008.46
2022-08-22T00:07:43.249Z,1008.46
2022-08-22T00:08:43.232Z,1008.43
2022-08-22T00:09:43.263Z,1008.39
2022-08-22T00:10:43.256Z,1008.39
2022-08-22T00:11:43.272Z,1008.41
2022-08-22T00:12:43.263Z,1008.39
2022-08-22T00:13:43.228Z,1008.38
2022-08-22T00:14:43.223Z,1008.37
2022-08-22T00:15:44.268Z,1008.38
2022-08-22T00:16:43.209Z,1008.36
2022-08-22T00:17:43.246Z,1008.39
2022-08-22T00:18:43.204Z,1008.39
2022-08-22T00:19:43.228Z,1008.39
2022-08-22T00:20:43.210Z,1008.36
2022-08-22T00:21:43.237Z,1008.38
2022-08-22T00:22:43.212Z,1008.35
2022-08-22T00:23:43.196Z,1008.35
2022-08-22T00:24:43.191Z,1008.36
2022-08-22T00:25:43.208Z,1008.37
2022-08-22T00:26:45.394Z,1008.34
2022-08-22T00:27:45.183Z,1008.38
2022-08-22T00:28:43.192Z,1008.37
2022-08-22T00:29:43.440Z,1008.40
2022-08-22T00:30:43.192Z,1008.36
2022-08-22T00:31:43.173Z,1008.33
2022-08-22T00:32:43.180Z,1008.39
2022-08-22T00:33:43.182Z,1008.39
2022-08-22T00:34:43.184Z,1008.41
2022-08-22T00:35:45.215Z,1008.39
2022-08-22T00:36:43.160Z,1008.40
2022-08-22T00:37:43.172Z,1008.38
2022-08-22T00:38:43.141Z,1008.38
2022-08-22T00:39:43.205Z,1008.42
2022-08-22T00:40:43.139Z,1008.41
2022-08-22T00:41:43.143Z,1008.37
2022-08-22T00:42:43.153Z,1008.37
2022-08-22T00:43:43.131Z,1008.34
2022-08-22T00:44:43.173Z,1008.33
2022-08-22T00:45:43.121Z,1008.36
2022-08-22T00:46:43.147Z,1008.36
2022-08-22T00:47:43.154Z,1008.39
2022-08-22T00:48:43.124Z,1008.38
2022-08-22T00:49:43.108Z,1008.35
2022-08-22T00:50:43.125Z,1008.39
2022-08-22T00:51:43.109Z,1008.37
2022-08-22T00:52:43.129Z,1008.37
2022-08-22T00:53:43.099Z,1008.39
2022-08-22T00:54:43.130Z,1008.36
2022-08-22T00:55:43.097Z,1008.35
2022-08-22T00:56:45.156Z,1008.36
2022-08-22T00:57:43.124Z,1008.33
2022-08-22T00:58:43.103Z,1008.34
2022-08-22T00:59:43.093Z,1008.34
2022-08-22T01:00:43.109Z,1008.36
2022-08-22T01:01:43.069Z,1008.34
2022-08-22T01:02:43.084Z,1008.33
2022-08-22T01:03:43.104Z,1008.34
2022-08-22T01:04:43.090Z,1008.31
2022-08-22T01:05:43.060Z,1008.31
2022-08-22T01:06:43.077Z,1008.34
2022-08-22T01:07:43.063Z,1008.31
2022-08-22T01:08:43.084Z,1008.32
2022-08-22T01:09:43.076Z,1008.26
2022-08-22T01:10:43.068Z,1008.27
2022-08-22T01:11:43.043Z,1008.28
2022-08-22T01:12:43.052Z,1008.25
2022-08-22T01:13:43.030Z,1008.27
2022-08-22T01:14:43.046Z,1008.18
2022-08-22T01:15:43.027Z,1008.17
2022-08-22T01:16:43.038Z,1008.15
2022-08-22T01:17:43.022Z,1008.19
2022-08-22T01:18:43.016Z,1008.20
2022-08-22T01:19:43.001Z,1008.21
2022-08-22T01:20:43.024Z,1008.22
2022-08-22T01:21:42.999Z,1008.21
2022-08-22T01:22:42.992Z,1008.21
2022-08-22T01:23:43.017Z,1008.21
2022-08-22T01:24:42.983Z,1008.18
2022-08-22T01:25:42.981Z,1008.18
2022-08-22T01:26:44.680Z,1008.17
2022-08-22T01:27:43.010Z,1008.18
2022-08-22T01:28:42.991Z,1008.19
2022-08-22T01:29:42.967Z,1008.18
2022-08-22T01:30:42.968Z,1008.18
2022-08-22T01:31:42.960Z,1008.18
2022-08-22T01:32:42.953Z,1008.15
2022-08-22T01:33:42.988Z,1008.22
2022-08-22T01:34:42.960Z,1008.19
2022-08-22T01:35:42.967Z,1008.21
2022-08-22T01:36:42.977Z,1008.21
2022-08-22T01:37:43.611Z,1008.24
2022-08-22T01:38:42.947Z,1008.24
2022-08-22T01:39:42.951Z,1008.23
2022-08-22T01:40:53.587Z,1008.24
2022-08-22T01:41:42.961Z,1008.25
2022-08-22T01:42:42.914Z,1008.24
2022-08-22T01:43:51.514Z,1008.20
2022-08-22T01:44:42.911Z,1008.21
2022-08-22T01:45:42.920Z,1008.21
2022-08-22T01:46:42.931Z,1008.20
2022-08-22T01:47:42.937Z,1008.19
2022-08-22T01:48:42.894Z,1008.18
2022-08-22T01:49:42.911Z,1008.15
2022-08-22T01:50:42.893Z,1008.19
2022-08-22T01:51:42.924Z,1008.19
2022-08-22T01:52:42.882Z,1008.17
2022-08-22T01:53:42.895Z,1008.17
2022-08-22T01:54:42.887Z,1008.19
2022-08-22T01:55:42.881Z,1008.17
2022-08-22T01:56:42.887Z,1008.17
2022-08-22T01:57:42.892Z,1008.17
2022-08-22T01:58:42.885Z,1008.16
2022-08-22T01:59:42.967Z,1008.15
2022-08-22T02:00:42.871Z,1008.13
2022-08-22T02:01:42.850Z,1008.16
2022-08-22T02:02:42.867Z,1008.15
2022-08-22T02:03:42.877Z,1008.15
2022-08-22T02:04:42.872Z,1008.16
2022-08-22T02:05:42.868Z,1008.16
2022-08-22T02:06:42.826Z,1008.15
2022-08-22T02:07:42.865Z,1008.16
2022-08-22T02:08:42.814Z,1008.19
2022-08-22T02:09:42.812Z,1008.17
2022-08-22T02:10:42.836Z,1008.15
2022-08-22T02:11:42.835Z,1008.19
2022-08-22T02:12:42.823Z,1008.16
2022-08-22T02:13:42.803Z,1008.17
2022-08-22T02:14:42.810Z,1008.19
2022-08-22T02:15:43.985Z,1008.19
2022-08-22T02:16:42.820Z,1008.17
2022-08-22T02:17:42.811Z,1008.14
2022-08-22T02:18:42.803Z,1008.14
2022-08-22T02:19:42.812Z,1008.15
2022-08-22T02:20:42.768Z,1008.11
2022-08-22T02:21:42.793Z,1008.15
2022-08-22T02:22:44.582Z,1008.12
2022-08-22T02:23:42.760Z,1008.12
2022-08-22T02:24:42.750Z,1008.11
2022-08-22T02:25:42.772Z,1008.10
2022-08-22T02:26:42.763Z,1008.09
2022-08-22T02:27:42.761Z,1008.11
2022-08-22T02:28:56.622Z,1008.04
2022-08-22T02:29:42.741Z,1008.07
2022-08-22T02:30:42.739Z,1008.05
2022-08-22T02:31:42.744Z,1008.04
2022-08-22T02:32:42.723Z,1008.02
2022-08-22T02:33:42.734Z,1007.98
2022-08-22T02:34:42.736Z,1007.99
2022-08-22T02:35:42.723Z,1007.97
2022-08-22T02:36:42.754Z,1007.95
2022-08-22T02:37:42.721Z,1007.96
2022-08-22T02:38:42.739Z,1007.93
2022-08-22T02:39:42.805Z,1007.93
2022-08-22T02:40:42.728Z,1007.90
2022-08-22T02:41:42.704Z,1007.93
2022-08-22T02:42:42.717Z,1007.90
2022-08-22T02:43:42.698Z,1007.89
2022-08-22T02:44:42.683Z,1007.94
2022-08-22T02:45:42.688Z,1007.94
2022-08-22T02:46:42.687Z,1007.95
2022-08-22T02:47:42.701Z,1007.93
2022-08-22T02:48:42.684Z,1007.98
2022-08-22T02:49:43.969Z,1008.00
2022-08-22T02:50:42.689Z,1007.98
2022-08-22T02:51:42.652Z,1007.97
2022-08-22T02:52:42.681Z,1007.99
2022-08-22T02:53:42.666Z,1008.00
2022-08-22T02:54:42.663Z,1007.98
2022-08-22T02:55:42.647Z,1007.95
2022-08-22T02:56:42.637Z,1007.91
2022-08-22T02:57:42.640Z,1007.90
2022-08-22T02:58:42.623Z,1007.87
2022-08-22T02:59:42.623Z,1007.88
2022-08-22T03:00:42.673Z,1007.88
2022-08-22T03:01:42.615Z,1007.92
2022-08-22T03:02:42.648Z,1007.91
2022-08-22T03:03:42.605Z,1007.88
2022-08-22T03:04:42.605Z,1007.89
2022-08-22T03:05:42.598Z,1007.91
2022-08-22T03:06:42.622Z,1007.94
2022-08-22T03:07:42.586Z,1007.89
2022-08-22T03:08:47.348Z,1007.95
2022-08-22T03:09:42.614Z,1007.93
2022-08-22T03:10:42.613Z,1007.89
2022-08-22T03:11:42.575Z,1007.95
2022-08-22T03:12:42.578Z,1007.93
2022-08-22T03:13:42.613Z,1007.94
2022-08-22T03:14:42.560Z,1007.99
2022-08-22T03:15:43.603Z,1007.91
2022-08-22T03:16:42.556Z,1007.91
2022-08-22T03:17:42.547Z,1007.90
2022-08-22T03:18:42.558Z,1007.90
2022-08-22T03:19:42.561Z,1007.89
2022-08-22T03:20:42.533Z,1007.87
2022-08-22T03:21:42.546Z,1007.85
2022-08-22T03:22:42.535Z,1007.80
2022-08-22T03:23:42.526Z,1007.78
2022-08-22T03:24:42.555Z,1007.77
2022-08-22T03:25:42.512Z,1007.77
2022-08-22T03:26:42.510Z,1007.77
2022-08-22T03:27:42.509Z,1007.78
2022-08-22T03:28:52.700Z,1007.77
2022-08-22T03:29:42.495Z,1007.75
2022-08-22T03:30:42.533Z,1007.75
2022-08-22T03:31:42.517Z,1007.75
2022-08-22T03:32:42.503Z,1007.76
2022-08-22T03:33:42.495Z,1007.76
2022-08-22T03:34:42.498Z,1007.70
2022-08-22T03:35:42.492Z,1007.79
2022-08-22T03:36:42.483Z,1007.81
2022-08-22T03:37:42.480Z,1007.80
2022-08-22T03:38:42.460Z,1007.81
2022-08-22T03:39:42.528Z,1007.81
2022-08-22T03:40:42.629Z,1007.81
2022-08-22T03:41:42.445Z,1007.76
2022-08-22T03:42:42.452Z,1007.74
2022-08-22T03:43:42.450Z,1007.75
2022-08-22T03:44:42.478Z,1007.71
2022-08-22T03:45:42.451Z,1007.71
2022-08-22T03:46:42.427Z,1007.70
2022-08-22T03:47:42.421Z,1007.72
2022-08-22T03:48:42.411Z,1007.70
2022-08-22T03:49:42.425Z,1007.73
2022-08-22T03:50:42.430Z,1007.72
2022-08-22T03:51:42.402Z,1007.72
2022-08-22T03:52:42.411Z,1007.74
2022-08-22T03:53:42.437Z,1007.74
2022-08-22T03:54:42.401Z,1007.73
2022-08-22T03:55:42.390Z,1007.69
2022-08-22T03:56:42.382Z,1007.70
2022-08-22T03:57:42.376Z,1007.67
2022-08-22T03:58:42.417Z,1007.64
2022-08-22T03:59:42.604Z,1007.64
2022-08-22T04:00:42.387Z,1007.63
2022-08-22T04:01:42.354Z,1007.64
2022-08-22T04:02:44.260Z,1007.66
2022-08-22T04:03:42.350Z,1007.65
2022-08-22T04:04:42.362Z,1007.65
2022-08-22T04:05:42.380Z,1007.68
2022-08-22T04:06:42.368Z,1007.66
2022-08-22T04:07:42.788Z,1007.68
2022-08-22T04:08:43.913Z,1007.65
2022-08-22T04:09:42.321Z,1007.67
2022-08-22T04:10:42.347Z,1007.62
2022-08-22T04:11:42.342Z,1007.64
2022-08-22T04:12:42.335Z,1007.66
2022-08-22T04:13:42.308Z,1007.69
2022-08-22T04:14:42.327Z,1007.67
2022-08-22T04:15:42.302Z,1007.68
2022-08-22T04:16:42.295Z,1007.69
2022-08-22T04:17:42.360Z,1007.71
2022-08-22T04:18:42.340Z,1007.70
2022-08-22T04:19:42.294Z,1007.76
2022-08-22T04:20:42.305Z,1007.78
2022-08-22T04:21:42.274Z,1007.74
2022-08-22T04:22:42.270Z,1007.75
2022-08-22T04:23:42.272Z,1007.74
2022-08-22T04:24:42.297Z,1007.73
2022-08-22T04:25:42.266Z,1007.71
2022-08-22T04:26:42.290Z,1007.67
2022-08-22T04:27:42.252Z,1007.67
2022-08-22T04:28:42.241Z,1007.67
2022-08-22T04:29:42.244Z,1007.68
2022-08-22T04:30:42.233Z,1007.70
2022-08-22T04:31:42.251Z,1007.70
2022-08-22T04:32:42.246Z,1007.68
2022-08-22T04:33:42.219Z,1007.68
2022-08-22T04:34:42.241Z,1007.69
2022-08-22T04:35:42.231Z,1007.70
2022-08-22T04:36:42.212Z,1007.66
2022-08-22T04:37:42.196Z,1007.67
2022-08-22T04:38:42.233Z,1007.63
2022-08-22T04:39:42.236Z,1007.66
2022-08-22T04:40:42.219Z,1007.66
2022-08-22T04:41:42.182Z,1007.70
2022-08-22T04:42:42.194Z,1007.69
2022-08-22T04:43:42.206Z,1007.67
2022-08-22T04:44:42.177Z,1007.70
2022-08-22T04:45:42.174Z,1007.75
2022-08-22T04:46:42.189Z,1007.76
2022-08-22T04:47:42.162Z,1007.78
2022-08-22T04:48:42.177Z,1007.76
2022-08-22T04:49:42.156Z,1007.78
2022-08-22T04:50:43.290Z,1007.77
2022-08-22T04:51:42.157Z,1007.76
2022-08-22T04:52:42.154Z,1007.76
2022-08-22T04:53:42.141Z,1007.81
2022-08-22T04:54:42.150Z,1007.77
2022-08-22T04:55:42.157Z,1007.78
2022-08-22T04:56:42.110Z,1007.79
2022-08-22T04:57:42.115Z,1007.81
2022-08-22T04:58:42.146Z,1007.81
2022-08-22T04:59:42.145Z,1007.79
2022-08-22T05:00:42.151Z,1007.78
2022-08-22T05:01:42.205Z,1007.81
2022-08-22T05:02:42.101Z,1007.81
2022-08-22T05:03:44.955Z,1007.83
2022-08-22T05:04:42.075Z,1007.82
2022-08-22T05:05:42.103Z,1007.81
2022-08-22T05:06:42.094Z,1007.81
2022-08-22T05:07:42.058Z,1007.82
2022-08-22T05:08:42.081Z,1007.82
2022-08-22T05:09:42.103Z,1007.81
2022-08-22T05:10:42.062Z,1007.88
2022-08-22T05:11:42.080Z,1007.84
2022-08-22T05:12:42.042Z,1007.89
2022-08-22T05:13:42.092Z,1007.87
2022-08-22T05:14:42.064Z,1007.90
2022-08-22T05:15:42.054Z,1007.89
2022-08-22T05:16:42.028Z,1007.88
2022-08-22T05:17:42.049Z,1007.92
2022-08-22T05:18:42.043Z,1007.93
2022-08-22T05:19:42.035Z,1007.92
2022-08-22T05:20:42.033Z,1007.92
2022-08-22T05:21:42.040Z,1007.95
2022-08-22T05:22:42.016Z,1007.98
2022-08-22T05:23:42.012Z,1007.95
2022-08-22T05:24:42.017Z,1007.99
2022-08-22T05:25:41.989Z,1007.99
2022-08-22T05:26:41.992Z,1007.99
2022-08-22T05:27:41.989Z,1007.99
2022-08-22T05:28:41.988Z,1007.99
2022-08-22T05:29:41.963Z,1007.98
2022-08-22T05:30:41.986Z,1007.99
2022-08-22T05:31:41.969Z,1007.97
2022-08-22T05:32:41.956Z,1007.96
2022-08-22T05:33:41.946Z,1008.04
2022-08-22T05:34:41.971Z,1008.01
2022-08-22T05:35:43.976Z,1008.01
2022-08-22T05:36:41.966Z,1008.05
2022-08-22T05:37:41.947Z,1008.05
2022-08-22T05:38:41.956Z,1008.07
2022-08-22T05:39:41.956Z,1008.10
2022-08-22T05:40:41.931Z,1008.04
2022-08-22T05:41:41.938Z,1008.04
2022-08-22T05:42:41.936Z,1008.03
2022-08-22T05:43:41.921Z,1008.05
2022-08-22T05:44:41.891Z,1008.03
2022-08-22T05:45:41.910Z,1008.02
2022-08-22T05:46:41.919Z,1008.00
2022-08-22T05:47:41.879Z,1007.97
2022-08-22T05:48:41.903Z,1008.00
2022-08-22T05:49:41.886Z,1007.97
2022-08-22T05:50:41.862Z,1007.98
2022-08-22T05:51:41.868Z,1007.98
2022-08-22T05:52:41.851Z,1007.96
2022-08-22T05:53:41.873Z,1007.99
2022-08-22T05:54:41.866Z,1007.99
2022-08-22T05:55:41.870Z,1008.00
2022-08-22T05:56:41.851Z,1008.02
2022-08-22T05:57:41.832Z,1008.04
2022-08-22T05:58:41.867Z,1008.05
2022-08-22T05:59:41.867Z,1008.02
2022-08-22T06:00:41.846Z,1007.99
2022-08-22T06:01:41.906Z,1008.03
2022-08-22T06:02:41.833Z,1007.97
2022-08-22T06:03:41.842Z,1007.99
2022-08-22T06:04:41.823Z,1008.03
2022-08-22T06:05:41.817Z,1007.98
2022-08-22T06:06:41.806Z,1008.01
2022-08-22T06:07:41.794Z,1008.05
2022-08-22T06:08:41.785Z,1008.06
2022-08-22T06:09:41.803Z,1008.04
2022-08-22T06:10:41.800Z,1008.07
2022-08-22T06:11:41.773Z,1008.06
2022-08-22T06:12:43.187Z,1008.09
2022-08-22T06:13:41.798Z,1008.10
2022-08-22T06:14:41.775Z,1008.09
2022-08-22T06:15:41.756Z,1008.11
2022-08-22T06:16:47.364Z,1008.10
2022-08-22T06:17:41.784Z,1008.12
2022-08-22T06:18:41.753Z,1008.10
2022-08-22T06:19:41.766Z,1008.07
2022-08-22T06:20:41.733Z,1008.08
2022-08-22T06:21:41.749Z,1008.10
2022-08-22T06:22:41.738Z,1008.13
2022-08-22T06:23:41.729Z,1008.16
2022-08-22T06:24:41.728Z,1008.17
2022-08-22T06:25:41.725Z,1008.16
2022-08-22T06:26:41.729Z,1008.23
2022-08-22T06:27:41.711Z,1008.27
2022-08-22T06:28:54.523Z,1008.31
2022-08-22T06:29:41.712Z,1008.28
2022-08-22T06:30:41.720Z,1008.31
2022-08-22T06:31:41.693Z,1008.38
2022-08-22T06:32:59.280Z,1008.35
2022-08-22T06:33:45.797Z,1008.29
2022-08-22T06:34:41.686Z,1008.34
2022-08-22T06:35:41.668Z,1008.34
2022-08-22T06:36:41.668Z,1008.36
2022-08-22T06:37:41.683Z,1008.31
2022-08-22T06:38:41.665Z,1008.35
2022-08-22T06:39:41.751Z,1008.35
2022-08-22T06:40:41.649Z,1008.37
2022-08-22T06:41:41.658Z,1008.43
2022-08-22T06:42:41.667Z,1008.43
2022-08-22T06:43:41.696Z,1008.45
2022-08-22T06:44:41.647Z,1008.45
2022-08-22T06:45:41.644Z,1008.47
2022-08-22T06:46:41.642Z,1008.46
2022-08-22T06:47:41.630Z,1008.51
2022-08-22T06:48:41.649Z,1008.51
2022-08-22T06:49:41.650Z,1008.45
2022-08-22T06:50:41.610Z,1008.54
2022-08-22T06:51:41.631Z,1008.58
2022-08-22T06:52:41.601Z,1008.64
2022-08-22T06:53:47.833Z,1008.73
2022-08-22T06:54:41.616Z,1008.74
2022-08-22T06:55:41.693Z,1008.70
2022-08-22T06:56:41.581Z,1008.70
2022-08-22T06:57:41.579Z,1008.68
2022-08-22T06:58:41.595Z,1008.68
2022-08-22T06:59:41.586Z,1008.71
2022-08-22T07:00:41.598Z,1008.72
2022-08-22T07:01:41.639Z,1008.75
2022-08-22T07:02:41.607Z,1008.69
2022-08-22T07:03:41.631Z,1008.68
2022-08-22T07:04:41.579Z,1008.67
2022-08-22T07:05:41.572Z,1008.68
2022-08-22T07:06:41.572Z,1008.69
2022-08-22T07:07:41.581Z,1008.68
2022-08-22T07:08:41.553Z,1008.66
2022-08-22T07:09:41.564Z,1008.60
2022-08-22T07:10:41.553Z,1008.60
2022-08-22T07:11:41.574Z,1008.56
2022-08-22T07:12:41.590Z,1008.49
2022-08-22T07:13:41.599Z,1008.46
2022-08-22T07:14:41.607Z,1008.45
2022-08-22T07:15:41.584Z,1008.39
2022-08-22T07:16:41.562Z,1008.43
2022-08-22T07:17:41.554Z,1008.42
2022-08-22T07:18:41.541Z,1008.39
2022-08-22T07:19:41.570Z,1008.41
2022-08-22T07:20:41.526Z,1008.42
2022-08-22T07:21:41.545Z,1008.37
2022-08-22T07:22:41.554Z,1008.32
2022-08-22T07:23:41.520Z,1008.30
2022-08-22T07:24:41.542Z,1008.35
2022-08-22T07:25:41.532Z,1008.33
2022-08-22T07:26:41.554Z,1008.36
2022-08-22T07:27:41.548Z,1008.35
2022-08-22T07:28:41.589Z,1008.32
2022-08-22T07:29:41.584Z,1008.34
2022-08-22T07:30:41.523Z,1008.33
2022-08-22T07:31:41.522Z,1008.34
2022-08-22T07:32:41.582Z,1008.41
2022-08-22T07:33:41.552Z,1008.47
2022-08-22T07:34:41.560Z,1008.41
2022-08-22T07:35:41.559Z,1008.40
2022-08-22T07:36:41.545Z,1008.38
2022-08-22T07:37:41.573Z,1008.38
2022-08-22T07:38:41.512Z,1008.36
2022-08-22T07:39:41.609Z,1008.42
2022-08-22T07:40:41.517Z,1008.45
2022-08-22T07:41:41.511Z,1008.44
2022-08-22T07:42:41.542Z,1008.46
2022-08-22T07:43:41.511Z,1008.43
2022-08-22T07:44:41.537Z,1008.41
2022-08-22T07:45:41.510Z,1008.45
2022-08-22T07:46:41.531Z,1008.46
2022-08-22T07:47:41.547Z,1008.48
2022-08-22T07:49:05.861Z,1008.48
2022-08-22T07:49:45.927Z,1008.52
2022-08-22T07:50:41.569Z,1008.50
2022-08-22T07:51:41.517Z,1008.55
2022-08-22T07:52:41.540Z,1008.53
2022-08-22T07:53:41.569Z,1008.56
2022-08-22T07:54:41.574Z,1008.53
2022-08-22T07:55:48.467Z,1008.54
2022-08-22T07:56:41.562Z,1008.53
2022-08-22T07:57:41.573Z,1008.54
2022-08-22T07:58:41.555Z,1008.47
2022-08-22T07:59:41.561Z,1008.50
2022-08-22T08:00:41.613Z,1008.51
2022-08-22T08:01:41.634Z,1008.50
2022-08-22T08:02:41.543Z,1008.52
2022-08-22T08:03:41.570Z,1008.51
2022-08-22T08:04:41.588Z,1008.52
2022-08-22T08:05:41.568Z,1008.51
2022-08-22T08:06:41.565Z,1008.51
2022-08-22T08:07:41.547Z,1008.48
2022-08-22T08:08:41.551Z,1008.52
2022-08-22T08:09:41.554Z,1008.50
2022-08-22T08:10:41.554Z,1008.48
2022-08-22T08:11:41.567Z,1008.53
2022-08-22T08:12:41.581Z,1008.47
2022-08-22T08:13:43.685Z,1008.47
2022-08-22T08:14:41.608Z,1008.44
2022-08-22T08:15:41.603Z,1008.45
2022-08-22T08:16:41.617Z,1008.42
2022-08-22T08:17:41.623Z,1008.44
2022-08-22T08:18:41.578Z,1008.45
2022-08-22T08:19:41.654Z,1008.49
2022-08-22T08:20:41.594Z,1008.38
2022-08-22T08:21:41.637Z,1008.37
2022-08-22T08:22:41.584Z,1008.36
2022-08-22T08:23:41.590Z,1008.39
2022-08-22T08:24:42.594Z,1008.38
2022-08-22T08:25:41.620Z,1008.38
2022-08-22T08:26:41.628Z,1008.36
2022-08-22T08:27:41.639Z,1008.34
2022-08-22T08:28:41.644Z,1008.32
2022-08-22T08:29:41.611Z,1008.33
2022-08-22T08:30:41.634Z,1008.32
2022-08-22T08:31:43.097Z,1008.34
2022-08-22T08:32:41.705Z,1008.33
2022-08-22T08:33:41.696Z,1008.32
2022-08-22T08:34:41.697Z,1008.33
2022-08-22T08:36:01.866Z,1008.31
2022-08-22T08:36:41.671Z,1008.34
2022-08-22T08:37:41.672Z,1008.32
2022-08-22T08:38:41.679Z,1008.31
2022-08-22T08:39:41.739Z,1008.30
2022-08-22T08:40:41.700Z,1008.31
2022-08-22T08:41:41.724Z,1008.29
2022-08-22T08:42:41.718Z,1008.29
2022-08-22T08:43:41.731Z,1008.28
2022-08-22T08:44:41.681Z,1008.29
2022-08-22T08:45:41.709Z,1008.31
2022-08-22T08:46:41.688Z,1008.31
2022-08-22T08:47:41.715Z,1008.33
2022-08-22T08:48:41.677Z,1008.25
2022-08-22T08:49:42.947Z,1008.25
2022-08-22T08:50:43.175Z,1008.26
2022-08-22T08:51:41.682Z,1008.25
2022-08-22T08:52:41.682Z,1008.24
2022-08-22T08:53:43.229Z,1008.22
2022-08-22T08:54:41.698Z,1008.15
2022-08-22T08:55:41.713Z,1008.16
2022-08-22T08:56:44.945Z,1008.18
2022-08-22T08:57:41.723Z,1008.16
2022-08-22T08:58:41.706Z,1008.12
2022-08-22T08:59:44.223Z,1008.11
2022-08-22T09:00:41.716Z,1008.10
2022-08-22T09:01:41.834Z,1008.11
2022-08-22T09:02:42.567Z,1008.10
2022-08-22T09:03:41.822Z,1008.11
2022-08-22T09:04:41.790Z,1008.09
2022-08-22T09:05:41.780Z,1008.15
2022-08-22T09:07:41.775Z,1008.11
2022-08-22T09:08:41.820Z,1008.11
2022-08-22T09:09:41.763Z,1008.08
2022-08-22T09:10:41.792Z,1008.10
2022-08-22T09:11:41.837Z,1008.10
2022-08-22T09:12:55.970Z,1008.09
2022-08-22T09:13:41.815Z,1008.05
2022-08-22T09:14:41.804Z,1008.08
2022-08-22T09:15:41.821Z,1008.04
2022-08-22T09:16:46.288Z,1008.07
2022-08-22T09:17:41.841Z,1008.09
2022-08-22T09:18:41.819Z,1008.08
2022-08-22T09:19:41.869Z,1008.10
2022-08-22T09:20:41.886Z,1008.09
2022-08-22T09:21:41.853Z,1008.02
2022-08-22T09:22:50.105Z,1008.00
2022-08-22T09:23:41.854Z,1008.04
2022-08-22T09:24:41.875Z,1008.04
2022-08-22T09:25:41.893Z,1008.06
2022-08-22T09:26:41.887Z,1008.03
2022-08-22T09:27:41.905Z,1008.04
2022-08-22T09:28:41.894Z,1008.02
2022-08-22T09:29:51.384Z,1008.03
2022-08-22T09:30:41.939Z,1007.99
2022-08-22T09:31:51.502Z,1008.05
2022-08-22T09:32:41.936Z,1008.04
2022-08-22T09:33:41.964Z,1008.00
2022-08-22T09:34:41.950Z,1008.00
2022-08-22T09:35:41.963Z,1007.99
2022-08-22T09:36:41.960Z,1007.98
2022-08-22T09:37:41.961Z,1007.94
2022-08-22T09:38:47.832Z,1007.94
2022-08-22T09:39:41.987Z,1007.94
2022-08-22T09:40:42.007Z,1007.94
2022-08-22T09:41:41.984Z,1007.94
2022-08-22T09:42:44.818Z,1007.87
2022-08-22T09:43:45.163Z,1007.92
2022-08-22T09:44:41.993Z,1007.94
2022-08-22T09:45:42.893Z,1007.95
2022-08-22T09:46:42.066Z,1007.95
2022-08-22T09:47:42.063Z,1007.85
2022-08-22T09:48:42.542Z,1007.88
2022-08-22T09:49:42.038Z,1007.88
2022-08-22T09:50:42.047Z,1007.86
2022-08-22T09:51:42.118Z,1007.89
2022-08-22T09:52:42.063Z,1007.83
2022-08-22T09:53:42.135Z,1007.82
2022-08-22T09:54:42.100Z,1007.82
2022-08-22T09:55:42.125Z,1007.78
2022-08-22T09:56:42.138Z,1007.78
2022-08-22T09:57:42.128Z,1007.74
2022-08-22T09:58:42.128Z,1007.71
2022-08-22T09:59:42.165Z,1007.67
2022-08-22T10:00:42.198Z,1007.66
2022-08-22T10:01:42.362Z,1007.65
2022-08-22T10:02:43.272Z,1007.65
2022-08-22T10:03:42.183Z,1007.67
2022-08-22T10:04:42.212Z,1007.68
2022-08-22T10:05:44.415Z,1007.67
2022-08-22T10:06:42.193Z,1007.67
2022-08-22T10:07:42.193Z,1007.66
2022-08-22T10:08:42.227Z,1007.65
2022-08-22T10:09:42.235Z,1007.69
2022-08-22T10:10:42.248Z,1007.62
2022-08-22T10:11:42.456Z,1007.65
2022-08-22T10:12:42.264Z,1007.65
2022-08-22T10:13:42.280Z,1007.68
2022-08-22T10:14:42.249Z,1007.63
2022-08-22T10:15:42.308Z,1007.63
2022-08-22T10:16:42.301Z,1007.59
2022-08-22T10:17:42.264Z,1007.64
2022-08-22T10:18:52.470Z,1007.68
2022-08-22T10:19:42.290Z,1007.67
2022-08-22T10:20:42.311Z,1007.65
2022-08-22T10:21:42.295Z,1007.65
2022-08-22T10:22:42.319Z,1007.61
2022-08-22T10:23:42.354Z,1007.62
2022-08-22T10:24:43.940Z,1007.59
2022-08-22T10:25:42.441Z,1007.59
2022-08-22T10:26:42.363Z,1007.63
2022-08-22T10:27:42.331Z,1007.54
2022-08-22T10:28:42.364Z,1007.60
2022-08-22T10:29:42.387Z,1007.70
2022-08-22T10:30:42.347Z,1007.71
2022-08-22T10:31:58.541Z,1007.53
2022-08-22T10:32:42.860Z,1007.57
2022-08-22T10:33:42.407Z,1007.52
2022-08-22T10:34:42.385Z,1007.49
2022-08-22T10:35:42.398Z,1007.51
2022-08-22T10:36:42.394Z,1007.53
2022-08-22T10:37:46.171Z,1007.53
2022-08-22T10:38:44.172Z,1007.53
2022-08-22T10:39:43.955Z,1007.47
2022-08-22T10:40:42.430Z,1007.45
2022-08-22T10:41:42.423Z,1007.46
2022-08-22T10:42:42.452Z,1007.47
2022-08-22T10:43:42.430Z,1007.53
2022-08-22T10:44:42.439Z,1007.47
2022-08-22T10:45:42.483Z,1007.48
2022-08-22T10:46:42.474Z,1007.45
2022-08-22T10:47:42.519Z,1007.42
2022-08-22T10:48:42.504Z,1007.46
2022-08-22T10:49:42.471Z,1007.45
2022-08-22T10:50:42.932Z,1007.39
2022-08-22T10:51:42.538Z,1007.41
2022-08-22T10:52:42.498Z,1007.37
2022-08-22T10:53:42.536Z,1007.37
2022-08-22T10:54:42.511Z,1007.34
2022-08-22T10:55:42.583Z,1007.41
2022-08-22T10:56:43.760Z,1007.42
2022-08-22T10:57:42.563Z,1007.43
2022-08-22T10:58:44.058Z,1007.38
2022-08-22T10:59:42.555Z,1007.34
2022-08-22T11:00:46.171Z,1007.35
2022-08-22T11:01:42.602Z,1007.34
2022-08-22T11:02:44.993Z,1007.32
2022-08-22T11:03:42.629Z,1007.30
2022-08-22T11:04:42.601Z,1007.32
2022-08-22T11:05:42.678Z,1007.30
2022-08-22T11:06:44.815Z,1007.22
2022-08-22T11:07:42.625Z,1007.29
2022-08-22T11:08:42.596Z,1007.26
2022-08-22T11:09:42.623Z,1007.26
2022-08-22T11:10:42.636Z,1007.26
2022-08-22T11:11:42.639Z,1007.23
2022-08-22T11:12:42.641Z,1007.22
2022-08-22T11:13:43.514Z,1007.34
2022-08-22T11:14:42.684Z,1007.35
2022-08-22T11:15:42.678Z,1007.30
2022-08-22T11:16:42.671Z,1007.21
2022-08-22T11:17:46.343Z,1007.22
2022-08-22T11:18:42.662Z,1007.26
2022-08-22T11:19:42.696Z,1007.26
2022-08-22T11:20:42.718Z,1007.21
2022-08-22T11:21:42.740Z,1007.24
2022-08-22T11:22:42.704Z,1007.21
2022-08-22T11:23:42.741Z,1007.18
2022-08-22T11:24:55.817Z,1007.16
2022-08-22T11:25:42.738Z,1007.17
2022-08-22T11:26:46.824Z,1007.15
2022-08-22T11:27:42.739Z,1007.19
2022-08-22T11:28:42.727Z,1007.21
2022-08-22T11:29:44.213Z,1007.17
2022-08-22T11:30:45.231Z,1007.17
2022-08-22T11:31:47.350Z,1007.15
2022-08-22T11:32:42.788Z,1007.16
2022-08-22T11:33:47.463Z,1007.15
2022-08-22T11:34:42.763Z,1007.10
2022-08-22T11:35:42.759Z,1007.12
2022-08-22T11:36:42.781Z,1007.09
2022-08-22T11:37:43.766Z,1007.03
2022-08-22T11:38:42.780Z,1007.03
2022-08-22T11:39:42.850Z,1007.03
2022-08-22T11:40:42.866Z,1007.04
2022-08-22T11:41:42.798Z,1007.02
2022-08-22T11:42:59.088Z,1007.02
2022-08-22T11:43:42.832Z,1007.01
2022-08-22T11:44:50.212Z,1006.98
2022-08-22T11:45:42.827Z,1006.95
2022-08-22T11:46:42.838Z,1006.91
2022-08-22T11:47:42.882Z,1006.93
2022-08-22T11:48:42.878Z,1006.90
2022-08-22T11:49:42.882Z,1006.86
2022-08-22T11:50:42.878Z,1006.86
2022-08-22T11:51:42.898Z,1006.85
2022-08-22T11:52:42.900Z,1006.80
2022-08-22T11:53:42.899Z,1006.84
2022-08-22T11:54:42.924Z,1006.78
2022-08-22T11:55:42.890Z,1006.77
2022-08-22T11:56:42.906Z,1006.79
2022-08-22T11:57:44.975Z,1006.77